Time;durP1;ratioP1;P1;durP2;ratioP2;P2;SDS_P1;SDS_P2;PMS_P1;PMS_P2;Temp;Humidity;BMP_temperature;BMP_pressure;BME280_temperature;BME280_humidity;BME280_pressure;Samples;Min_cycle;Max_cycle;Signal;HPM_P1;HPM_P2
2022/11/08 00:01:55;;;;;;;4.88;1.67;;;13.90;99.90;;;;;;5082601;28;20093;-40
2022/11/08 00:04:21;;;;;;;3.80;2.00;;;14.00;99.90;;;;;;5069574;28;20027;-38
2022/11/08 00:15:03;;;;;;;4.97;1.60;;;13.90;99.90;;;;;;5073749;28;20031;-38
2022/11/08 00:17:30;;;;;;;1.85;1.13;;;13.90;99.90;;;;;;5062665;28;20383;-40
2022/11/08 00:19:56;;;;;;;4.68;1.70;;;13.90;99.90;;;;;;5074382;28;20377;-39
2022/11/08 00:22:22;;;;;;;5.45;1.63;;;13.90;99.90;;;;;;5061902;28;20551;-40
2022/11/08 00:24:48;;;;;;;4.25;1.52;;;13.90;99.90;;;;;;5079255;28;20020;-38
2022/11/08 00:27:16;;;;;;;7.55;1.70;;;13.90;99.90;;;;;;5066444;28;20051;-39
2022/11/08 00:29:42;;;;;;;4.03;2.03;;;13.90;99.90;;;;;;5078879;28;20020;-39
2022/11/08 00:32:12;;;;;;;6.65;2.20;;;13.90;99.90;;;;;;5066514;28;20040;-39
2022/11/08 00:34:38;;;;;;;4.28;1.42;;;13.90;99.90;;;;;;5076355;28;20071;-39
2022/11/08 00:37:04;;;;;;;4.05;1.42;;;13.80;99.90;;;;;;5069179;28;20545;-40
2022/11/08 00:39:29;;;;;;;4.88;1.42;;;13.80;99.90;;;;;;5073796;28;20028;-40
2022/11/08 00:41:58;;;;;;;4.38;1.45;;;13.80;99.90;;;;;;5070331;28;20049;-40
2022/11/08 00:44:24;;;;;;;6.05;2.00;;;13.70;99.90;;;;;;5070960;28;20016;-40
2022/11/08 00:46:52;;;;;;;4.22;1.48;;;13.70;99.90;;;;;;5073260;28;20039;-41
2022/11/08 00:49:18;;;;;;;6.03;1.85;;;13.60;99.90;;;;;;5068794;28;20019;-41
2022/11/08 00:51:44;;;;;;;5.72;1.70;;;13.60;99.90;;;;;;5075753;28;20024;-41
2022/11/08 00:54:13;;;;;;;4.22;1.50;;;13.50;99.90;;;;;;5068015;28;20079;-40
2022/11/08 00:56:39;;;;;;;5.85;2.00;;;13.50;99.90;;;;;;5074859;28;20051;-41
2022/11/08 00:59:04;;;;;;;5.70;1.80;;;13.50;99.90;;;;;;5085285;28;20028;-40
2022/11/08 01:01:30;;;;;;;2.05;1.50;;;13.50;99.90;;;;;;5074151;28;20044;-40
2022/11/08 01:03:55;;;;;;;4.55;1.70;;;13.50;99.90;;;;;;5085094;28;20106;-41
2022/11/08 01:06:23;;;;;;;4.65;1.85;;;13.50;99.90;;;;;;5072384;28;20494;-40
2022/11/08 01:08:49;;;;;;;7.13;2.08;;;13.40;99.90;;;;;;5086632;28;20031;-41
2022/11/08 01:11:18;;;;;;;6.40;1.95;;;13.40;99.90;;;;;;5075201;28;20024;-40
2022/11/08 01:13:44;;;;;;;3.78;1.60;;;13.40;99.90;;;;;;5086454;28;20089;-39
2022/11/08 01:16:21;;;;;;;5.60;1.90;;;13.40;99.90;;;;;;5072820;28;20591;-40
2022/11/08 01:18:48;;;;;;;5.88;2.05;;;13.40;99.90;;;;;;5064518;28;20031;-38
2022/11/08 01:21:15;;;;;;;4.60;1.50;;;13.30;99.90;;;;;;5075725;28;20064;-38
2022/11/08 01:23:42;;;;;;;4.57;1.40;;;13.30;99.90;;;;;;5067194;28;20086;-38
2022/11/08 01:26:11;;;;;;;4.68;1.70;;;13.20;99.90;;;;;;5073196;28;20096;-38
2022/11/08 01:28:37;;;;;;;4.45;1.60;;;13.20;99.90;;;;;;5068797;28;20131;-41
2022/11/08 01:31:05;;;;;;;4.38;1.48;;;13.20;99.90;;;;;;5071271;28;20027;-38
2022/11/08 01:33:31;;;;;;;4.15;2.03;;;13.20;99.90;;;;;;5070717;28;20028;-41
2022/11/08 01:35:59;;;;;;;5.75;2.20;;;13.10;99.90;;;;;;5068678;28;20032;-40
2022/11/08 01:38:25;;;;;;;5.75;1.60;;;13.10;99.90;;;;;;5072711;28;20036;-40
2022/11/08 01:40:51;;;;;;;4.28;1.95;;;13.10;99.90;;;;;;5066735;28;20020;-40
2022/11/08 01:43:28;;;;;;;5.82;1.83;;;13.10;99.90;;;;;;5075254;28;20035;-38
2022/11/08 01:46:15;;;;;;;6.63;1.80;;;13.10;99.90;;;;;;5065807;28;20024;-38
2022/11/08 01:48:46;;;;;;;3.53;1.38;;;13.10;99.90;;;;;;5076391;28;20036;-41
2022/11/08 01:51:16;;;;;;;4.28;1.73;;;13.10;99.90;;;;;;5082410;28;20027;-40
2022/11/08 01:53:43;;;;;;;3.35;1.52;;;13.10;99.90;;;;;;5074492;28;20059;-40
2022/11/08 01:56:09;;;;;;;2.70;1.27;;;13.10;99.90;;;;;;5083612;28;20033;-40
2022/11/08 01:58:36;;;;;;;2.95;1.30;;;13.10;99.90;;;;;;5073556;28;20024;-40
2022/11/08 02:01:02;;;;;;;4.05;1.60;;;13.00;99.90;;;;;;5082844;28;20028;-41
2022/11/08 02:03:32;;;;;;;4.63;2.25;;;13.00;99.90;;;;;;5073507;28;20042;-41
2022/11/08 02:05:58;;;;;;;7.95;3.17;;;13.00;99.90;;;;;;5083983;28;20537;-40
2022/11/08 02:08:30;;;;;;;3.10;1.30;;;13.00;99.90;;;;;;5071837;28;20028;-40
2022/11/08 02:10:57;;;;;;;5.88;1.73;;;12.90;99.90;;;;;;5083169;28;20123;-39
2022/11/08 02:13:25;;;;;;;4.55;1.70;;;12.90;99.90;;;;;;5076170;28;20059;-41
2022/11/08 02:15:51;;;;;;;3.50;1.35;;;13.00;99.90;;;;;;5064879;28;20063;-38
2022/11/08 02:18:20;;;;;;;4.50;1.55;;;12.90;99.90;;;;;;5075610;28;20111;-40
2022/11/08 02:21:09;;;;;;;7.00;2.28;;;12.90;99.90;;;;;;5062431;28;20085;-41
2022/11/08 02:23:54;;;;;;;4.68;2.00;;;12.90;99.90;;;;;;5077157;28;20088;-40
2022/11/08 02:26:24;;;;;;;5.70;1.70;;;12.90;99.90;;;;;;5064126;28;20028;-40
2022/11/08 02:28:50;;;;;;;4.32;1.60;;;12.90;99.90;;;;;;5076007;28;20089;-40
2022/11/08 02:31:17;;;;;;;4.13;1.35;;;12.90;99.90;;;;;;5063768;28;20050;-38
2022/11/08 02:33:44;;;;;;;4.00;1.67;;;12.90;99.90;;;;;;5075434;28;20576;-41
2022/11/08 02:36:14;;;;;;;4.22;1.70;;;13.00;99.90;;;;;;5063975;28;20319;-41
2022/11/08 02:38:43;;;;;;;6.60;1.77;;;13.00;99.90;;;;;;5073853;28;20540;-41
2022/11/08 02:41:09;;;;;;;3.67;1.50;;;13.00;99.90;;;;;;5065614;28;20043;-39
2022/11/08 02:43:34;;;;;;;5.65;1.45;;;13.00;99.90;;;;;;5071109;28;20031;-41
2022/11/08 02:46:00;;;;;;;4.97;1.50;;;13.00;99.90;;;;;;5069326;28;20055;-39
2022/11/08 02:48:26;;;;;;;3.40;1.80;;;13.00;99.90;;;;;;5067433;28;20408;-40
2022/11/08 02:50:52;;;;;;;4.80;1.73;;;13.00;99.90;;;;;;5071663;28;20044;-41
2022/11/08 02:53:18;;;;;;;4.35;1.45;;;13.00;99.90;;;;;;5065687;28;20047;-40
2022/11/08 02:55:44;;;;;;;6.43;1.80;;;13.00;99.90;;;;;;5073035;28;20031;-41
2022/11/08 02:58:10;;;;;;;3.45;1.55;;;13.00;99.90;;;;;;5064140;28;20028;-39
2022/11/08 03:00:36;;;;;;;3.45;1.33;;;12.90;99.90;;;;;;5075242;28;20028;-40
2022/11/08 03:03:04;;;;;;;6.00;1.85;;;12.90;99.90;;;;;;5063698;28;20028;-40
2022/11/08 03:05:30;;;;;;;4.75;1.75;;;12.90;99.90;;;;;;5074660;28;20097;-39
2022/11/08 03:07:57;;;;;;;4.45;1.60;;;12.90;99.90;;;;;;5063735;28;20024;-41
2022/11/08 03:10:24;;;;;;;3.42;1.55;;;12.90;99.90;;;;;;5074675;28;20111;-38
2022/11/08 03:12:58;;;;;;;5.07;1.90;;;12.90;99.90;;;;;;5063559;28;20036;-40
2022/11/08 03:15:24;;;;;;;5.13;1.40;;;12.90;99.90;;;;;;5076477;28;20074;-38
2022/11/08 03:17:49;;;;;;;2.55;1.35;;;12.90;99.90;;;;;;5063088;28;20775;-41
2022/11/08 03:20:15;;;;;;;1.58;1.38;;;12.90;99.90;;;;;;5074119;28;20080;-39
2022/11/08 03:22:41;;;;;;;4.90;2.03;;;12.90;99.90;;;;;;5064748;28;20036;-41
2022/11/08 03:25:07;;;;;;;4.70;1.80;;;12.90;99.90;;;;;;5071020;28;20024;-39
2022/11/08 03:27:32;;;;;;;5.32;1.80;;;12.90;99.90;;;;;;5067411;28;20086;-38
2022/11/08 03:29:58;;;;;;;6.97;1.60;;;12.90;99.90;;;;;;5068987;28;20028;-37
2022/11/08 03:32:23;;;;;;;3.08;1.48;;;12.90;99.90;;;;;;5067716;28;20582;-39
2022/11/08 03:34:49;;;;;;;3.35;1.20;;;13.00;99.90;;;;;;5065880;28;20071;-40
2022/11/08 03:37:14;;;;;;;3.67;1.20;;;12.90;99.90;;;;;;5071989;28;20028;-40
2022/11/08 03:39:46;;;;;;;3.97;1.55;;;12.90;99.90;;;;;;5063734;28;20032;-39
2022/11/08 03:42:12;;;;;;;1.90;1.33;;;12.90;99.90;;;;;;5072142;28;20089;-37
2022/11/08 03:44:37;;;;;;;3.30;1.15;;;12.90;99.90;;;;;;5081613;28;20278;-40
2022/11/08 03:47:06;;;;;;;6.72;1.48;;;12.90;99.90;;;;;;5071992;28;20518;-39
2022/11/08 03:49:31;;;;;;;3.70;1.13;;;12.90;99.90;;;;;;5082890;28;20077;-39
2022/11/08 03:51:57;;;;;;;2.92;1.30;;;12.90;99.90;;;;;;5068975;28;20039;-41
2022/11/08 03:54:22;;;;;;;3.33;1.45;;;12.90;99.90;;;;;;5082698;28;20072;-40
2022/11/08 03:56:48;;;;;;;3.45;1.40;;;12.80;99.90;;;;;;5071023;28;20981;-36
2022/11/08 03:59:13;;;;;;;4.43;1.50;;;12.80;99.90;;;;;;5088957;28;20567;-40
2022/11/08 04:01:39;;;;;;;2.90;1.23;;;12.80;99.90;;;;;;5077735;28;20724;-41
2022/11/08 04:04:05;;;;;;;2.83;1.20;;;12.80;99.90;;;;;;5088941;28;20107;-40
2022/11/08 04:06:52;;;;;;;1.77;1.20;;;12.70;99.90;;;;;;5080105;28;20132;-40
2022/11/08 04:09:17;;;;;;;5.00;1.30;;;12.70;99.90;;;;;;5088320;28;20065;-37
2022/11/08 04:17:11;;;;;;;2.65;1.27;;;12.60;99.90;;;;;;5077952;28;20039;-39
2022/11/08 04:22:20;;;;;;;5.28;1.30;;;12.40;99.90;;;;;;5077458;28;20548;-38
2022/11/08 04:24:46;;;;;;;3.35;1.45;;;12.40;99.90;;;;;;5089037;28;20020;-37
2022/11/08 04:27:12;;;;;;;2.72;1.25;;;12.40;99.90;;;;;;5078795;28;20067;-39
2022/11/08 04:29:37;;;;;;;4.28;1.40;;;12.40;99.90;;;;;;5086299;28;20541;-40
2022/11/08 04:32:03;;;;;;;4.50;1.45;;;12.40;99.90;;;;;;5083563;28;20060;-38
2022/11/08 04:34:29;;;;;;;3.53;1.10;;;12.30;99.90;;;;;;5082004;28;20048;-39
2022/11/08 04:36:54;;;;;;;3.17;1.20;;;12.30;99.90;;;;;;5085998;28;20023;-41
2022/11/08 04:39:20;;;;;;;4.88;1.30;;;12.30;99.90;;;;;;5080600;28;20150;-40
2022/11/08 04:41:45;;;;;;;1.45;1.20;;;12.30;99.90;;;;;;5087250;28;20135;-39
2022/11/08 04:44:11;;;;;;;3.10;1.35;;;12.30;99.90;;;;;;5077314;28;20084;-40
2022/11/08 04:46:36;;;;;;;3.83;1.45;;;12.20;99.90;;;;;;5088072;28;20099;-38
2022/11/08 04:49:02;;;;;;;3.42;2.03;;;12.20;99.90;;;;;;5077105;28;20043;-40
2022/11/08 04:51:30;;;;;;;5.55;1.40;;;12.20;99.90;;;;;;5088832;28;20630;-39
2022/11/08 04:53:58;;;;;;;2.10;1.13;;;12.20;99.90;;;;;;5082109;28;20032;-41
2022/11/08 04:56:25;;;;;;;3.30;1.40;;;12.20;99.90;;;;;;5068271;28;20028;-41
2022/11/08 04:58:52;;;;;;;4.05;1.45;;;12.20;99.90;;;;;;5081813;28;20081;-38
2022/11/08 05:01:23;;;;;;;4.32;1.50;;;12.20;99.90;;;;;;5068791;28;20020;-41
2022/11/08 05:03:50;;;;;;;3.72;1.67;;;12.20;99.90;;;;;;5080962;28;20024;-40
2022/11/08 05:06:30;;;;;;;1.98;1.10;;;12.30;99.90;;;;;;5068809;28;20123;-41
2022/11/08 05:08:56;;;;;;;4.00;1.55;;;12.30;99.90;;;;;;5078837;28;20447;-40
2022/11/08 05:11:24;;;;;;;3.45;1.50;;;12.30;99.90;;;;;;5066772;28;20039;-41
2022/11/08 05:13:50;;;;;;;2.35;1.35;;;12.30;99.90;;;;;;5075395;28;20024;-39
2022/11/08 05:16:22;;;;;;;8.15;2.22;;;12.20;99.90;;;;;;5067435;28;20598;-40
2022/11/08 05:18:48;;;;;;;3.25;1.67;;;12.30;99.90;;;;;;5073585;28;20045;-43
2022/11/08 05:24:01;;;;;;;2.55;1.50;;;12.20;99.90;;;;;;5073470;28;20522;-41
2022/11/08 05:26:28;;;;;;;2.65;1.10;;;12.20;99.90;;;;;;5069162;28;20033;-41
2022/11/08 05:28:53;;;;;;;2.88;1.30;;;12.20;99.90;;;;;;5071380;28;20020;-36
2022/11/08 05:31:19;;;;;;;3.67;1.30;;;12.20;99.90;;;;;;5071493;28;20024;-39
2022/11/08 05:33:45;;;;;;;4.70;1.20;;;12.20;99.90;;;;;;5067689;28;20048;-40
2022/11/08 05:36:13;;;;;;;1.88;1.00;;;12.10;99.90;;;;;;5074266;28;20078;-41
2022/11/08 05:38:39;;;;;;;3.17;1.20;;;12.10;99.90;;;;;;5066063;28;20028;-40
2022/11/08 05:41:07;;;;;;;4.35;1.55;;;12.10;99.90;;;;;;5076666;28;20025;-41
2022/11/08 05:43:33;;;;;;;3.92;1.38;;;12.10;99.90;;;;;;5066741;28;20028;-38
2022/11/08 05:45:58;;;;;;;2.42;1.10;;;12.10;99.90;;;;;;5075794;28;20017;-42
2022/11/08 05:48:24;;;;;;;3.30;1.33;;;12.10;99.90;;;;;;5065045;28;20032;-41
2022/11/08 05:50:50;;;;;;;1.85;1.20;;;12.10;99.90;;;;;;5077686;28;20024;-40
2022/11/08 05:53:16;;;;;;;3.97;1.45;;;12.10;99.90;;;;;;5064189;28;20119;-40
2022/11/08 05:55:41;;;;;;;3.03;1.75;;;12.10;99.90;;;;;;5077998;28;20028;-41
2022/11/08 05:58:10;;;;;;;4.35;1.30;;;12.10;99.90;;;;;;5064926;28;20045;-37
2022/11/08 06:00:35;;;;;;;2.28;1.27;;;12.10;99.90;;;;;;5076175;28;20089;-40
2022/11/08 06:03:04;;;;;;;2.25;1.27;;;12.10;99.90;;;;;;5066187;28;20040;-39
2022/11/08 06:05:31;;;;;;;3.60;1.30;;;12.10;99.90;;;;;;5072964;28;20039;-38
2022/11/08 06:07:56;;;;;;;3.28;1.48;;;12.10;99.90;;;;;;5068041;28;20017;-41
2022/11/08 06:10:22;;;;;;;4.30;1.40;;;12.10;99.90;;;;;;5070381;28;20034;-39
2022/11/08 06:12:47;;;;;;;4.05;1.55;;;12.10;99.90;;;;;;5067111;28;20028;-39
2022/11/08 06:15:13;;;;;;;3.03;1.33;;;12.00;99.90;;;;;;5067826;28;20067;-37
2022/11/08 06:17:38;;;;;;;3.28;1.30;;;12.00;99.90;;;;;;5073560;28;20021;-39
2022/11/08 06:20:06;;;;;;;2.72;1.27;;;12.00;99.90;;;;;;5064870;28;20032;-42
2022/11/08 06:22:33;;;;;;;3.40;1.70;;;12.00;99.90;;;;;;5073120;28;20046;-40
2022/11/08 06:25:02;;;;;;;2.63;1.30;;;12.00;99.90;;;;;;5083444;28;20027;-39
2022/11/08 06:27:28;;;;;;;5.13;1.65;;;12.00;99.90;;;;;;5072909;28;20032;-39
2022/11/08 06:29:54;;;;;;;2.42;1.40;;;11.90;99.90;;;;;;5084127;28;20031;-41
2022/11/08 06:32:19;;;;;;;2.70;1.15;;;11.90;99.90;;;;;;5072124;28;20069;-41
2022/11/08 06:34:45;;;;;;;2.78;1.67;;;11.90;99.90;;;;;;5083338;28;20036;-40
2022/11/08 06:37:13;;;;;;;2.55;1.40;;;11.90;99.90;;;;;;5070975;28;20488;-41
2022/11/08 06:39:39;;;;;;;2.85;1.52;;;11.90;99.90;;;;;;5084265;28;20038;-39
2022/11/08 06:42:04;;;;;;;4.03;1.52;;;11.90;99.90;;;;;;5071086;28;20044;-41
2022/11/08 06:44:30;;;;;;;2.92;1.70;;;12.00;99.90;;;;;;5083360;28;20039;-37
2022/11/08 06:46:55;;;;;;;3.03;1.60;;;11.90;99.90;;;;;;5074342;28;20029;-40
2022/11/08 06:49:22;;;;;;;2.35;1.17;;;12.00;99.90;;;;;;5079799;28;20020;-42
2022/11/08 06:51:49;;;;;;;4.03;1.42;;;12.00;99.90;;;;;;5075383;28;20020;-41
2022/11/08 06:54:14;;;;;;;4.47;1.33;;;12.00;99.90;;;;;;5078368;28;20031;-39
2022/11/08 06:56:40;;;;;;;3.53;1.50;;;12.00;99.90;;;;;;5078504;28;20028;-40
2022/11/08 06:59:05;;;;;;;4.07;2.40;;;12.00;99.90;;;;;;5074435;28;20372;-40
2022/11/08 07:01:31;;;;;;;2.90;1.70;;;12.00;99.90;;;;;;5076006;28;20033;-41
2022/11/08 07:03:56;;;;;;;3.80;1.80;;;12.00;99.90;;;;;;5073463;28;20117;-39
2022/11/08 07:06:22;;;;;;;4.82;1.77;;;12.00;99.90;;;;;;5066173;28;20035;-40
2022/11/08 07:08:51;;;;;;;3.33;1.70;;;12.00;99.90;;;;;;5075251;28;20013;-41
2022/11/08 07:11:16;;;;;;;2.50;1.38;;;12.00;99.90;;;;;;5076568;28;20513;-38
2022/11/08 07:13:51;;;;;;;2.13;1.45;;;12.00;99.90;;;;;;5076418;28;20098;-41
2022/11/08 07:16:25;;;;;;;3.17;1.60;;;12.00;99.90;;;;;;5078627;28;20023;-40
2022/11/08 07:18:54;;;;;;;2.40;1.42;;;12.00;99.90;;;;;;5074860;28;20025;-39
2022/11/08 07:21:21;;;;;;;4.18;1.52;;;12.00;99.90;;;;;;5082421;28;20024;-40
2022/11/08 07:23:47;;;;;;;4.68;1.60;;;12.00;99.90;;;;;;5075063;28;20024;-41
2022/11/08 07:26:13;;;;;;;2.85;1.58;;;12.00;99.90;;;;;;5081084;28;20030;-41
2022/11/08 07:28:39;;;;;;;2.10;1.55;;;12.00;99.90;;;;;;5077850;28;20052;-42
2022/11/08 07:31:09;;;;;;;2.25;1.50;;;12.10;99.90;;;;;;5078771;28;20471;-41
2022/11/08 07:33:35;;;;;;;2.70;1.70;;;12.10;99.90;;;;;;5074757;28;20058;-41
2022/11/08 07:36:01;;;;;;;3.22;1.67;;;12.00;99.90;;;;;;5081229;28;20753;-40
2022/11/08 07:38:26;;;;;;;2.90;1.58;;;12.10;99.90;;;;;;5076417;28;20490;-42
2022/11/08 07:40:56;;;;;;;2.15;1.30;;;12.10;99.90;;;;;;5079886;28;20024;-41
2022/11/08 07:43:22;;;;;;;3.17;1.63;;;12.10;99.90;;;;;;5077747;28;20032;-41
2022/11/08 07:45:56;;;;;;;2.25;1.50;;;12.10;99.90;;;;;;5079740;28;20020;-41
2022/11/08 07:48:22;;;;;;;3.05;1.42;;;12.10;99.90;;;;;;5076766;28;20035;-40
2022/11/08 07:50:48;;;;;;;3.83;1.40;;;12.10;99.90;;;;;;5078161;28;20012;-40
2022/11/08 07:53:14;;;;;;;3.33;1.30;;;12.10;99.90;;;;;;5080199;28;20788;-38
2022/11/08 07:55:40;;;;;;;2.40;1.45;;;12.10;99.90;;;;;;5077254;28;20039;-41
2022/11/08 07:58:08;;;;;;;2.05;1.23;;;12.10;99.90;;;;;;5081037;28;20079;-41
2022/11/08 08:00:35;;;;;;;2.80;1.20;;;12.20;99.90;;;;;;5075587;28;20038;-40
2022/11/08 08:03:02;;;;;;;1.95;1.20;;;12.20;99.90;;;;;;5081727;28;20059;-40
2022/11/08 08:05:32;;;;;;;3.75;1.70;;;12.30;99.90;;;;;;5074041;28;20119;-40
2022/11/08 08:07:58;;;;;;;2.67;1.67;;;12.30;99.90;;;;;;5080694;28;20023;-41
2022/11/08 08:10:26;;;;;;;2.70;1.60;;;12.40;99.90;;;;;;5074771;28;20020;-40
2022/11/08 08:12:51;;;;;;;4.03;1.58;;;12.50;99.90;;;;;;5081217;28;20028;-39
2022/11/08 08:15:17;;;;;;;4.63;1.70;;;12.50;99.90;;;;;;5077534;28;20039;-38
2022/11/08 08:17:42;;;;;;;2.67;1.60;;;12.60;99.90;;;;;;5062384;28;20028;-38
2022/11/08 08:20:08;;;;;;;3.63;1.58;;;12.70;99.90;;;;;;5072269;28;20032;-40
2022/11/08 08:22:34;;;;;;;2.13;1.20;;;12.70;99.90;;;;;;5063953;28;20125;-41
2022/11/08 08:24:59;;;;;;;2.80;1.40;;;12.80;99.90;;;;;;5069705;28;20134;-40
2022/11/08 08:27:25;;;;;;;4.85;1.38;;;12.80;99.90;;;;;;5075176;28;20043;-40
2022/11/08 08:29:50;;;;;;;1.83;1.35;;;12.90;99.90;;;;;;5078222;28;20032;-41
2022/11/08 08:32:16;;;;;;;1.92;1.20;;;13.00;99.90;;;;;;5079088;28;20097;-41
2022/11/08 08:34:41;;;;;;;1.88;1.40;;;13.10;99.90;;;;;;5078770;28;20113;-40
2022/11/08 08:37:07;;;;;;;3.03;1.35;;;13.10;99.90;;;;;;5076251;28;20463;-41
2022/11/08 08:39:32;;;;;;;1.58;0.98;;;13.20;99.90;;;;;;5080824;28;20051;-41
2022/11/08 08:42:04;;;;;;;1.80;1.30;;;13.30;99.90;;;;;;5075718;28;20043;-40
2022/11/08 08:44:30;;;;;;;2.13;1.48;;;13.40;99.90;;;;;;5080824;28;20479;-41
2022/11/08 08:46:55;;;;;;;2.15;1.30;;;13.50;99.90;;;;;;5078760;28;20039;-39
2022/11/08 08:49:21;;;;;;;2.63;1.45;;;13.50;99.90;;;;;;5085853;28;20032;-40
2022/11/08 08:51:46;;;;;;;4.15;1.40;;;13.60;99.90;;;;;;5076524;28;20063;-39
2022/11/08 08:54:13;;;;;;;5.95;1.70;;;13.70;99.90;;;;;;5084613;28;20579;-39
2022/11/08 08:56:39;;;;;;;2.58;1.50;;;13.70;99.90;;;;;;5079895;28;20059;-42
2022/11/08 08:59:04;;;;;;;2.80;1.25;;;13.80;99.90;;;;;;5082881;28;20115;-40
2022/11/08 09:01:30;;;;;;;2.40;1.45;;;13.80;99.90;;;;;;5080319;28;20096;-38
2022/11/08 09:03:57;;;;;;;2.33;1.30;;;13.90;99.90;;;;;;5083478;28;20013;-40
2022/11/08 09:06:23;;;;;;;1.98;1.60;;;13.90;99.90;;;;;;5079641;28;20467;-37
2022/11/08 09:08:48;;;;;;;2.30;1.55;;;13.90;99.90;;;;;;5082646;28;20030;-40
2022/11/08 09:11:14;;;;;;;5.05;1.80;;;13.90;99.90;;;;;;5080687;28;20035;-40
2022/11/08 09:13:40;;;;;;;2.10;1.40;;;13.90;99.90;;;;;;5082088;28;20085;-40
2022/11/08 09:16:06;;;;;;;1.80;1.58;;;13.90;99.90;;;;;;5081783;28;20032;-39
2022/11/08 09:18:32;;;;;;;2.88;1.50;;;13.90;99.90;;;;;;5080183;28;20016;-40
2022/11/08 09:20:58;;;;;;;3.28;1.45;;;14.00;99.90;;;;;;5084519;28;20026;-40
2022/11/08 09:23:31;;;;;;;2.42;1.45;;;14.00;99.90;;;;;;5071080;28;20032;-41
2022/11/08 09:26:02;;;;;;;3.05;1.60;;;14.00;99.90;;;;;;5082250;28;20020;-41
2022/11/08 09:28:30;;;;;;;3.15;2.10;;;14.00;99.90;;;;;;5077532;28;20998;-41
2022/11/08 09:31:02;;;;;;;2.92;2.13;;;14.00;99.90;;;;;;5084179;28;20031;-40
2022/11/08 09:33:28;;;;;;;4.30;1.98;;;14.00;99.90;;;;;;5076333;28;20135;-40
2022/11/08 09:35:54;;;;;;;3.58;1.40;;;14.10;99.90;;;;;;5084813;28;20027;-37
2022/11/08 09:38:19;;;;;;;2.78;1.40;;;14.10;99.90;;;;;;5076992;28;20036;-41
2022/11/08 09:41:06;;;;;;;1.98;1.65;;;14.20;99.90;;;;;;5084277;28;20061;-40
2022/11/08 09:43:41;;;;;;;2.47;1.65;;;14.20;99.90;;;;;;5079512;28;20036;-40
2022/11/08 09:46:10;;;;;;;3.30;1.52;;;14.30;99.90;;;;;;5084665;28;20488;-42
2022/11/08 09:48:43;;;;;;;1.95;1.30;;;14.30;99.90;;;;;;5078685;28;20020;-42
2022/11/08 09:51:11;;;;;;;;;;;14.40;99.90;;;;;;5083558;28;20017;-41
2022/11/08 09:53:46;;;;;;;2.65;1.33;;;14.40;99.90;;;;;;5080787;28;19908;-41
2022/11/08 09:56:22;;;;;;;1.55;1.35;;;14.40;99.90;;;;;;5084450;28;20028;-41
2022/11/08 09:58:50;;;;;;;3.47;1.70;;;14.40;99.90;;;;;;5072081;28;20029;-41
2022/11/08 10:01:16;;;;;;;3.50;1.40;;;14.40;99.90;;;;;;5085221;28;20027;-41
2022/11/08 10:03:50;;;;;;;2.75;1.50;;;14.50;99.90;;;;;;5073366;28;20387;-41
2022/11/08 10:06:48;;;;;;;1.98;1.30;;;14.50;99.90;;;;;;5063474;28;20038;-37
2022/11/08 10:09:42;;;;;;;3.13;1.40;;;14.60;99.90;;;;;;5077297;28;20031;-40
2022/11/08 10:12:23;;;;;;;1.85;1.27;;;14.60;99.90;;;;;;5064297;28;20029;-40
2022/11/08 10:15:17;;;;;;;3.30;1.92;;;14.60;99.90;;;;;;5076007;28;20019;-41
2022/11/08 10:17:51;;;;;;;2.40;1.95;;;14.70;99.90;;;;;;5066251;28;20040;-41
2022/11/08 10:20:37;;;;;;;3.53;2.05;;;14.70;99.90;;;;;;5075195;28;20017;-41
2022/11/08 10:23:11;;;;;;;2.30;1.52;;;14.60;99.90;;;;;;5066299;28;20035;-40
2022/11/08 10:26:04;;;;;;;4.85;1.70;;;14.70;99.90;;;;;;5073646;28;20069;-40
2022/11/08 10:28:36;;;;;;;1.98;1.40;;;14.70;99.90;;;;;;5037284;28;20763;-39
2022/11/08 10:31:02;;;;;;;4.43;1.65;;;14.70;99.90;;;;;;5075748;28;20107;-39
2022/11/08 10:33:34;;;;;;;3.63;1.58;;;14.70;99.90;;;;;;5081585;28;20024;-40
2022/11/08 10:36:25;;;;;;;3.15;1.75;;;14.70;99.90;;;;;;5080105;28;20158;-41
2022/11/08 10:38:59;;;;;;;4.18;2.10;;;14.80;99.90;;;;;;5071923;28;20109;-41
2022/11/08 10:41:37;;;;;;;2.72;2.20;;;14.80;99.90;;;;;;5076401;28;20120;-41
2022/11/08 10:44:14;;;;;;;2.00;1.55;;;14.90;99.90;;;;;;5078566;28;20035;-40
2022/11/08 10:46:43;;;;;;;2.75;1.60;;;15.00;99.90;;;;;;5080356;28;20058;-42
2022/11/08 10:49:18;;;;;;;3.70;1.65;;;15.00;99.90;;;;;;5080410;28;20016;-39
2022/11/08 10:51:45;;;;;;;3.38;1.70;;;15.10;99.90;;;;;;5079284;28;20495;-41
2022/11/08 10:54:48;;;;;;;3.22;1.50;;;15.10;99.90;;;;;;5081322;28;20107;-39
2022/11/08 10:57:14;;;;;;;;;;;15.10;99.90;;;;;;5078343;28;20103;-41
2022/11/08 10:59:40;;;;;;;2.22;1.52;;;15.10;99.90;;;;;;5080456;28;19907;-48
2022/11/08 11:02:28;;;;;;;5.95;1.50;;;15.10;99.90;;;;;;5078735;28;20523;-40
2022/11/08 11:05:15;;;;;;;2.58;1.63;;;15.10;99.90;;;;;;5078590;28;20044;-41
2022/11/08 11:07:43;;;;;;;2.33;1.45;;;15.00;99.90;;;;;;5078702;28;20049;-40
2022/11/08 11:10:30;;;;;;;1.95;1.38;;;15.00;99.90;;;;;;5078601;28;20017;-42
2022/11/08 11:13:03;;;;;;;3.83;1.55;;;15.00;99.90;;;;;;5079939;28;20047;-40
2022/11/08 11:15:31;;;;;;;;;;;15.00;99.90;;;;;;5077123;28;20073;-39
2022/11/08 11:17:57;;;;;;;3.47;1.50;;;15.00;99.90;;;;;;5069587;28;19915;-39
2022/11/08 11:20:26;;;;;;;2.92;1.48;;;15.10;99.90;;;;;;5066574;28;20013;-41
2022/11/08 11:22:52;;;;;;;2.80;1.52;;;15.10;99.90;;;;;;5071077;28;20040;-39
2022/11/08 11:25:22;;;;;;;2.15;1.45;;;15.10;99.90;;;;;;5064449;28;20028;-40
2022/11/08 11:27:57;;;;;;;3.90;1.23;;;15.20;99.90;;;;;;5081076;28;20073;-40
2022/11/08 11:30:46;;;;;;;2.67;1.40;;;15.20;99.90;;;;;;5079020;28;20013;-40
2022/11/08 11:33:24;;;;;;;2.28;1.58;;;15.20;99.90;;;;;;5064802;28;20047;-39
2022/11/08 11:35:57;;;;;;;2.70;1.40;;;15.30;99.90;;;;;;5079513;28;20115;-38
2022/11/08 11:38:59;;;;;;;2.55;1.40;;;15.20;99.90;;;;;;5076260;28;20425;-37
2022/11/08 11:41:31;;;;;;;2.03;1.48;;;15.30;99.90;;;;;;5072849;28;20028;-41
2022/11/08 11:44:18;;;;;;;2.17;1.50;;;15.30;99.90;;;;;;5077496;28;20039;-40
2022/11/08 11:46:50;;;;;;;2.65;1.35;;;15.40;99.90;;;;;;5072889;28;20040;-42
2022/11/08 11:49:21;;;;;;;3.92;2.58;;;15.40;99.90;;;;;;5079337;28;20030;-41
2022/11/08 11:51:50;;;;;;;3.28;1.48;;;15.40;99.90;;;;;;5076367;28;20074;-43
2022/11/08 11:54:16;;;;;;;3.10;1.70;;;15.50;99.90;;;;;;5077394;28;20020;-40
2022/11/08 11:56:55;;;;;;;2.70;1.70;;;15.50;99.90;;;;;;5078075;28;20075;-42
2022/11/08 12:00:03;;;;;;;3.78;1.52;;;15.50;99.90;;;;;;5077136;28;20028;-41
2022/11/08 12:03:01;;;;;;;4.30;2.22;;;15.60;99.90;;;;;;5072469;28;20021;-41
2022/11/08 12:05:37;;;;;;;3.67;1.70;;;15.60;99.90;;;;;;5061884;28;20380;-39
2022/11/08 12:08:15;;;;;;;3.60;2.45;;;15.70;99.90;;;;;;5075631;28;20024;-42
2022/11/08 12:10:50;;;;;;;5.18;2.13;;;15.80;99.90;;;;;;5062818;28;20033;-41
2022/11/08 12:13:47;;;;;;;3.00;1.52;;;15.90;99.90;;;;;;5069651;28;20580;-40
2022/11/08 12:16:27;;;;;;;3.42;1.50;;;16.00;99.90;;;;;;5082260;28;20036;-39
2022/11/08 12:19:27;;;;;;;3.63;1.70;;;16.00;99.90;;;;;;5071985;28;20039;-41
2022/11/08 12:22:28;;;;;;;3.10;1.30;;;16.10;99.90;;;;;;5085581;28;20085;-41
2022/11/08 12:25:22;;;;;;;3.53;2.00;;;16.10;99.90;;;;;;5077822;28;20027;-40
2022/11/08 12:28:12;;;;;;;2.22;1.50;;;16.10;99.90;;;;;;5034729;28;20044;-41
2022/11/08 12:31:01;;;;;;;4.80;2.13;;;16.20;99.90;;;;;;5083593;28;20040;-41
2022/11/08 12:34:05;;;;;;;2.38;1.63;;;16.20;99.90;;;;;;5076486;28;20103;-41
2022/11/08 12:36:37;;;;;;;4.13;2.25;;;16.20;99.90;;;;;;5066298;28;20662;-40
2022/11/08 12:39:25;;;;;;;3.67;2.60;;;16.30;99.90;;;;;;5078579;28;20047;-42
2022/11/08 12:41:54;;;;;;;4.63;1.92;;;16.30;99.90;;;;;;5066620;28;20037;-40
2022/11/08 12:44:40;;;;;;;4.30;2.15;;;16.20;99.90;;;;;;5079008;28;20791;-40
2022/11/08 12:47:37;;;;;;;2.72;1.63;;;16.20;99.90;;;;;;5013990;28;20028;-40
2022/11/08 12:50:19;;;;;;;3.03;1.80;;;16.20;99.90;;;;;;5083762;28;20108;-40
2022/11/08 12:52:47;;;;;;;3.33;1.80;;;16.20;99.90;;;;;;5085189;28;20020;-40
2022/11/08 12:55:24;;;;;;;3.17;1.60;;;16.20;99.90;;;;;;5074576;28;20033;-40
2022/11/08 12:57:56;;;;;;;3.65;1.42;;;16.10;99.90;;;;;;5086242;28;20078;-41
2022/11/08 13:00:21;;;;;;;4.15;1.55;;;16.10;99.90;;;;;;5077159;28;20025;-41
2022/11/08 13:03:27;;;;;;;3.28;1.52;;;16.10;99.90;;;;;;5066237;28;20082;-43
2022/11/08 13:06:06;;;;;;;4.05;1.70;;;16.10;99.90;;;;;;5077277;28;20028;-40
2022/11/08 13:08:49;;;;;;;2.35;1.30;;;16.00;99.90;;;;;;5066554;28;20031;-40
2022/11/08 13:12:00;;;;;;;3.35;1.75;;;16.10;99.90;;;;;;5076206;28;20081;-39
2022/11/08 13:14:26;;;;;;;2.40;1.55;;;16.10;99.90;;;;;;5079096;28;20417;-39
2022/11/08 13:17:21;;;;;;;2.42;1.60;;;16.10;99.90;;;;;;5078971;28;20700;-41
2022/11/08 13:19:50;;;;;;;2.53;1.55;;;16.10;99.90;;;;;;5079268;28;20052;-39
2022/11/08 13:22:31;;;;;;;2.85;1.60;;;16.10;99.90;;;;;;5080260;28;20035;-40
2022/11/08 13:25:00;;;;;;;3.60;1.80;;;16.10;99.90;;;;;;5079121;28;20127;-42